Time;durP1;ratioP1;P1;durP2;ratioP2;P2;SDS_P1;SDS_P2;PMS_P1;PMS_P2;Temp;Humidity;BMP_temperature;BMP_pressure;BME280_temperature;BME280_humidity;BME280_pressure;Samples;Min_cycle;Max_cycle;Signal;HPM_P1;HPM_P2
2022/07/29 00:00:53;;;;;;;;;;;;;;;28.86;57.59;98536.94;2076615;28;20684;-52
2022/07/29 00:01:55;;;;;;;;;;;;;;;28.98;57.11;98537.50;2082725;28;19925;-53
2022/07/29 00:02:55;;;;;;;;;;;;;;;29.02;56.65;98533.09;2073557;28;19983;-52
2022/07/29 00:03:57;;;;;;;;;;;;;;;29.10;56.38;98538.06;2076348;28;20402;-52
2022/07/29 00:04:58;;;;;;;;;;;;;;;29.14;55.89;98536.41;2074851;28;20827;-53
2022/07/29 00:05:59;;;;;;;;;;;;;;;29.16;55.74;98538.84;2075232;28;19939;-52
2022/07/29 00:07:00;;;;;;;;;;;;;;;29.01;57.21;98534.22;2075776;28;19924;-52
2022/07/29 00:08:01;;;;;;;;;;;;;;;29.10;56.41;98539.97;2076535;28;19929;-50
2022/07/29 00:09:02;;;;;;;;;;;;;;;29.08;56.00;98532.03;2075328;28;20278;-53
2022/07/29 00:10:04;;;;;;;;;;;;;;;29.04;56.78;98539.16;2076149;28;19928;-52
2022/07/29 00:11:05;;;;;;;;;;;;;;;29.12;56.18;98533.13;2072252;28;19963;-52
2022/07/29 00:12:09;;;;;;;;;;;;;;;29.20;55.61;98539.13;2076139;28;19924;-53
2022/07/29 00:13:09;;;;;;;;;;;;;;;29.24;55.73;98537.50;2076027;28;19924;-52
2022/07/29 00:14:11;;;;;;;;;;;;;;;29.20;55.90;98537.22;2077625;28;20645;-52
2022/07/29 00:15:11;;;;;;;;;;;;;;;29.21;55.66;98538.03;2072086;28;19929;-54
2022/07/29 00:16:13;;;;;;;;;;;;;;;29.22;55.51;98535.00;2075396;28;19925;-51
2022/07/29 00:17:14;;;;;;;;;;;;;;;29.22;55.59;98531.47;2079995;28;19928;-52
2022/07/29 00:18:15;;;;;;;;;;;;;;;29.25;55.24;98530.91;2076250;28;19935;-53
2022/07/29 00:19:16;;;;;;;;;;;;;;;29.28;54.89;98533.09;2078061;28;20449;-53
2022/07/29 00:20:17;;;;;;;;;;;;;;;29.25;55.27;98523.53;2074756;28;20043;-49
2022/07/29 00:21:18;;;;;;;;;;;;;;;29.25;55.24;98529.00;2075295;28;19933;-52
2022/07/29 00:22:20;;;;;;;;;;;;;;;29.27;55.20;98534.19;2077538;28;19932;-52
2022/07/29 00:23:20;;;;;;;;;;;;;;;29.30;55.03;98539.91;2073991;28;19929;-52
2022/07/29 00:24:22;;;;;;;;;;;;;;;29.29;55.25;98535.56;2074584;28;20023;-52
2022/07/29 00:25:22;;;;;;;;;;;;;;;29.28;55.37;98541.28;2082679;28;19939;-53
2022/07/29 00:26:24;;;;;;;;;;;;;;;29.24;55.32;98540.22;2084478;28;20521;-51
2022/07/29 00:27:26;;;;;;;;;;;;;;;29.20;55.64;98541.84;2082828;28;19937;-53
2022/07/29 00:28:27;;;;;;;;;;;;;;;29.25;55.50;98539.94;2084085;28;19933;-52
2022/07/29 00:29:28;;;;;;;;;;;;;;;29.28;55.03;98538.56;2080907;28;19929;-51
2022/07/29 00:30:29;;;;;;;;;;;;;;;29.29;55.18;98537.47;2075537;28;20011;-53
2022/07/29 00:31:30;;;;;;;;;;;;;;;29.24;55.58;98537.50;2074601;28;21319;-52
2022/07/29 00:32:32;;;;;;;;;;;;;;;29.15;55.86;98540.78;2075593;28;19968;-54
2022/07/29 00:33:32;;;;;;;;;;;;;;;29.09;56.38;98536.41;2075723;28;20394;-51
2022/07/29 00:35:52;;;;;;;;;;;;;;;28.98;56.78;98540.22;2078347;28;19960;-49
2022/07/29 00:36:53;;;;;;;;;;;;;;;29.02;56.53;98535.84;2071316;28;19933;-53
2022/07/29 00:37:54;;;;;;;;;;;;;;;29.04;56.60;98544.63;2074641;28;20432;-50
2022/07/29 00:38:55;;;;;;;;;;;;;;;28.95;57.04;98536.13;2077137;28;19933;-53
2022/07/29 00:39:56;;;;;;;;;;;;;;;28.94;56.93;98536.38;2072560;28;19933;-52
2022/07/29 00:40:57;;;;;;;;;;;;;;;28.64;58.13;98539.94;2073966;28;20596;-54
2022/07/29 00:41:58;;;;;;;;;;;;;;;28.59;58.14;98537.22;2074820;28;20659;-53
2022/07/29 00:43:01;;;;;;;;;;;;;;;28.57;58.59;98534.75;2074294;28;19928;-53
2022/07/29 00:44:02;;;;;;;;;;;;;;;28.35;59.17;98528.69;2074670;28;19931;-51
2022/07/29 00:45:04;;;;;;;;;;;;;;;28.42;58.98;98527.38;2076919;28;19925;-52
2022/07/29 00:46:04;;;;;;;;;;;;;;;28.46;58.87;98527.66;2075921;28;20006;-54
2022/07/29 00:47:06;;;;;;;;;;;;;;;28.55;58.47;98530.66;2072228;28;19982;-52
2022/07/29 00:48:08;;;;;;;;;;;;;;;28.60;58.26;98531.47;2073970;28;19928;-51
2022/07/29 00:49:10;;;;;;;;;;;;;;;28.61;57.98;98527.69;2074636;28;19928;-52
2022/07/29 00:50:12;;;;;;;;;;;;;;;28.54;58.43;98527.13;2073712;28;19979;-53
2022/07/29 00:51:13;;;;;;;;;;;;;;;28.57;58.12;98528.50;2075175;28;20012;-51
2022/07/29 00:52:14;;;;;;;;;;;;;;;28.57;58.27;98528.50;2076335;28;20460;-53
2022/07/29 00:53:16;;;;;;;;;;;;;;;28.55;58.17;98528.75;2075851;28;19936;-51
2022/07/29 00:54:17;;;;;;;;;;;;;;;28.67;57.40;98525.78;2075557;28;19955;-52
2022/07/29 00:55:19;;;;;;;;;;;;;;;28.76;57.05;98528.78;2075224;28;20465;-54
2022/07/29 00:56:19;;;;;;;;;;;;;;;28.79;57.03;98531.78;2073803;28;19928;-53
2022/07/29 00:57:21;;;;;;;;;;;;;;;28.85;56.52;98524.41;2074766;28;19998;-53
2022/07/29 00:58:24;;;;;;;;;;;;;;;28.90;56.05;98533.41;2074528;28;20059;-52
2022/07/29 00:59:25;;;;;;;;;;;;;;;28.92;55.89;98528.50;2074257;28;19925;-53
2022/07/29 01:00:27;;;;;;;;;;;;;;;28.88;56.48;98526.56;2076104;28;19972;-53
2022/07/29 01:01:28;;;;;;;;;;;;;;;28.90;56.14;98529.84;2077016;28;19940;-53
2022/07/29 01:02:30;;;;;;;;;;;;;;;28.89;55.83;98526.31;2074741;28;20573;-52
2022/07/29 01:03:31;;;;;;;;;;;;;;;28.92;55.84;98527.69;2072810;28;19932;-52
2022/07/29 01:04:32;;;;;;;;;;;;;;;29.00;55.15;98520.81;2075690;28;22246;-52
2022/07/29 01:05:35;;;;;;;;;;;;;;;28.95;55.49;98525.22;2073356;28;19933;-52
2022/07/29 01:06:36;;;;;;;;;;;;;;;28.96;55.57;98526.03;2075405;28;19932;-53
2022/07/29 01:07:37;;;;;;;;;;;;;;;28.96;55.29;98520.56;2075721;28;19960;-53
2022/07/29 01:08:38;;;;;;;;;;;;;;;28.97;55.52;98524.91;2075150;28;19936;-54
2022/07/29 01:09:41;;;;;;;;;;;;;;;28.97;55.16;98524.91;2074984;28;19951;-51
2022/07/29 01:10:42;;;;;;;;;;;;;;;28.99;55.12;98530.13;2077053;28;19929;-53
2022/07/29 01:11:44;;;;;;;;;;;;;;;29.00;55.21;98532.56;2082273;28;20486;-51
2022/07/29 01:12:47;;;;;;;;;;;;;;;28.99;54.98;98524.66;2077268;28;19929;-50
2022/07/29 01:13:49;;;;;;;;;;;;;;;29.00;54.84;98527.09;2076631;28;19929;-53
2022/07/29 01:14:51;;;;;;;;;;;;;;;28.96;54.63;98532.28;2073166;28;19929;-53
2022/07/29 01:15:56;;;;;;;;;;;;;;;28.89;54.75;98520.84;2073002;28;19925;-52
2022/07/29 01:17:01;;;;;;;;;;;;;;;28.85;54.64;98527.13;2077855;28;19974;-54
2022/07/29 01:18:07;;;;;;;;;;;;;;;28.85;54.97;98524.41;2075319;28;19928;-51
2022/07/29 01:19:13;;;;;;;;;;;;;;;28.85;54.60;98521.66;2074367;28;19963;-54
2022/07/29 01:20:18;;;;;;;;;;;;;;;28.88;54.60;98529.31;2075070;28;19933;-52
2022/07/29 01:21:36;;;;;;;;;;;;;;;28.82;54.32;98525.75;2075921;28;19929;-51
2022/07/29 01:22:46;;;;;;;;;;;;;;;28.87;53.91;98528.50;2076214;28;19928;-52
2022/07/29 01:24:05;;;;;;;;;;;;;;;28.89;53.98;98520.00;2073016;28;19925;-53
2022/07/29 01:25:13;;;;;;;;;;;;;;;28.80;53.62;98524.38;2075342;28;19932;-53
2022/07/29 01:26:23;;;;;;;;;;;;;;;28.72;53.65;98523.03;2075882;28;26140;-52
2022/07/29 01:27:34;;;;;;;;;;;;;;;28.73;53.26;98528.22;2075853;28;19928;-51
2022/07/29 01:28:52;;;;;;;;;;;;;;;28.62;53.64;98512.94;2075841;28;19931;-53
2022/07/29 01:29:57;;;;;;;;;;;;;;;28.41;53.87;98514.78;2072422;28;19955;-54
2022/07/29 01:30:58;;;;;;;;;;;;;;;28.21;54.50;98512.84;2074799;28;19993;-52
2022/07/29 01:32:03;;;;;;;;;;;;;;;28.21;54.60;98510.13;2077073;28;19967;-50
2022/07/29 01:33:07;;;;;;;;;;;;;;;28.25;54.60;98510.41;2079715;28;19936;-51
2022/07/29 01:34:11;;;;;;;;;;;;;;;28.26;54.28;98510.13;2075827;28;19924;-53
2022/07/29 01:35:17;;;;;;;;;;;;;;;28.22;54.16;98508.22;2076784;28;19929;-52
2022/07/29 01:36:19;;;;;;;;;;;;;;;28.22;53.92;98500.03;2075143;28;20034;-53
2022/07/29 01:37:22;;;;;;;;;;;;;;;28.21;53.72;98499.22;2073112;28;19936;-54
2022/07/29 01:38:26;;;;;;;;;;;;;;;28.14;53.62;98497.84;2074054;28;19932;-53
2022/07/29 01:39:29;;;;;;;;;;;;;;;28.06;53.78;98497.28;2074690;28;20319;-53
2022/07/29 01:40:34;;;;;;;;;;;;;;;28.10;53.45;98497.56;2071701;28;19975;-50
2022/07/29 01:41:37;;;;;;;;;;;;;;;28.10;53.60;98503.00;2074456;28;19933;-54
2022/07/29 01:42:40;;;;;;;;;;;;;;;28.22;53.41;98505.47;2075134;28;21000;-49
2022/07/29 01:43:42;;;;;;;;;;;;;;;28.22;53.15;98497.31;2073362;28;19940;-52
2022/07/29 01:44:47;;;;;;;;;;;;;;;28.23;53.44;98504.41;2071865;28;19940;-53
2022/07/29 01:45:51;;;;;;;;;;;;;;;28.16;53.39;98507.38;2079013;28;19925;-51
2022/07/29 01:46:55;;;;;;;;;;;;;;;28.16;53.32;98506.56;2073061;28;19929;-53
2022/07/29 01:47:58;;;;;;;;;;;;;;;28.12;53.24;98511.75;2077416;28;20359;-51
2022/07/29 01:49:02;;;;;;;;;;;;;;;27.98;53.98;98505.19;2074622;28;20549;-53
2022/07/29 01:50:05;;;;;;;;;;;;;;;28.05;53.87;98511.19;2079637;28;19924;-51
2022/07/29 01:51:13;;;;;;;;;;;;;;;27.99;53.84;98506.81;2079061;28;19948;-52
2022/07/29 01:52:18;;;;;;;;;;;;;;;27.80;54.33;98501.88;2078902;28;20652;-49
2022/07/29 01:53:24;;;;;;;;;;;;;;;27.87;54.57;98509.78;2065035;28;19929;-53
2022/07/29 01:54:26;;;;;;;;;;;;;;;27.85;54.51;98511.94;2077726;28;19932;-53
2022/07/29 01:55:29;;;;;;;;;;;;;;;27.80;55.08;98507.31;2072887;28;19933;-53
2022/07/29 01:56:32;;;;;;;;;;;;;;;27.81;54.69;98503.50;2075179;28;20755;-52
2022/07/29 01:57:36;;;;;;;;;;;;;;;27.81;54.99;98500.75;2077567;28;20515;-51
2022/07/29 01:58:38;;;;;;;;;;;;;;;27.90;54.86;98502.97;2077627;28;19939;-51
2022/07/29 01:59:41;;;;;;;;;;;;;;;27.76;55.09;98492.53;2068812;28;20389;-53
2022/07/29 02:00:44;;;;;;;;;;;;;;;27.72;55.00;98498.78;2071026;28;20409;-52
2022/07/29 02:01:48;;;;;;;;;;;;;;;27.76;54.89;98497.16;2066979;28;19929;-53
2022/07/29 02:02:50;;;;;;;;;;;;;;;27.74;54.97;98500.16;2074790;28;20640;-52
2022/07/29 02:03:53;;;;;;;;;;;;;;;27.85;54.62;98503.75;2072044;28;19940;-49
2022/07/29 02:04:55;;;;;;;;;;;;;;;27.79;54.04;98502.09;2073675;28;20894;-53
2022/07/29 02:05:57;;;;;;;;;;;;;;;27.69;54.36;98505.56;2073316;28;20054;-52
2022/07/29 02:07:00;;;;;;;;;;;;;;;27.80;54.47;98504.59;2079542;28;19933;-54
2022/07/29 02:08:03;;;;;;;;;;;;;;;27.89;54.07;98504.03;2072119;28;19924;-51
2022/07/29 02:09:04;;;;;;;;;;;;;;;27.93;53.37;98508.69;2073789;28;19940;-51
2022/07/29 02:10:08;;;;;;;;;;;;;;;27.84;53.52;98511.13;2073117;28;19937;-51
2022/07/29 02:11:08;;;;;;;;;;;;;;;27.80;53.83;98510.03;2073624;28;20010;-52
2022/07/29 02:12:11;;;;;;;;;;;;;;;27.83;53.49;98512.22;2077974;28;19936;-52
2022/07/29 02:13:13;;;;;;;;;;;;;;;27.83;53.24;98508.66;2076861;28;19929;-51
2022/07/29 02:14:15;;;;;;;;;;;;;;;27.83;53.34;98508.66;2080811;28;19983;-51
2022/07/29 02:15:17;;;;;;;;;;;;;;;27.75;53.51;98512.72;2076866;28;20524;-51
2022/07/29 02:16:20;;;;;;;;;;;;;;;27.69;53.56;98510.22;2080772;28;20656;-53
2022/07/29 02:17:25;;;;;;;;;;;;;;;27.74;53.07;98512.97;2077720;28;19979;-50
2022/07/29 02:18:27;;;;;;;;;;;;;;;27.67;53.27;98506.97;2070782;28;19959;-52
2022/07/29 02:19:30;;;;;;;;;;;;;;;27.68;52.81;98506.66;2065877;28;19935;-53
2022/07/29 02:20:31;;;;;;;;;;;;;;;27.71;52.85;98508.03;2074759;28;20322;-52
2022/07/29 02:21:34;;;;;;;;;;;;;;;27.68;52.93;98511.31;2074494;28;20014;-52
2022/07/29 02:22:36;;;;;;;;;;;;;;;27.72;53.17;98512.41;2077206;28;19963;-52
2022/07/29 02:23:40;;;;;;;;;;;;;;;27.76;52.96;98508.88;2073654;28;19936;-52
2022/07/29 02:24:41;;;;;;;;;;;;;;;27.69;53.40;98510.22;2068288;28;20027;-52
2022/07/29 02:25:43;;;;;;;;;;;;;;;27.77;53.24;98505.06;2070573;28;21947;-52
2022/07/29 02:26:45;;;;;;;;;;;;;;;27.71;53.37;98513.50;2078284;28;19928;-53
2022/07/29 02:27:47;;;;;;;;;;;;;;;27.71;53.06;98513.50;2073171;28;19929;-52
2022/07/29 02:28:49;;;;;;;;;;;;;;;27.70;53.39;98509.97;2071864;28;19928;-54
2022/07/29 02:29:52;;;;;;;;;;;;;;;27.68;53.54;98511.31;2079206;28;19951;-50
2022/07/29 02:30:53;;;;;;;;;;;;;;;27.85;52.97;98510.03;2079826;28;19928;-53
2022/07/29 02:31:56;;;;;;;;;;;;;;;28.01;52.62;98510.91;2082134;28;20011;-51
2022/07/29 02:32:58;;;;;;;;;;;;;;;28.15;52.38;98511.22;2072852;28;21197;-52
2022/07/29 02:34:01;;;;;;;;;;;;;;;28.05;52.85;98508.44;2075290;28;19981;-52
2022/07/29 02:35:02;;;;;;;;;;;;;;;28.17;52.52;98503.59;2072847;28;19928;-52
2022/07/29 02:36:04;;;;;;;;;;;;;;;28.29;52.12;98503.31;2075153;28;20035;-51
2022/07/29 02:37:05;;;;;;;;;;;;;;;28.25;52.39;98503.06;2075806;28;19928;-52
2022/07/29 02:39:26;;;;;;;;;;;;;;;27.99;52.90;98507.63;2079243;28;19968;-52
2022/07/29 02:40:27;;;;;;;;;;;;;;;28.04;52.91;98509.56;2079744;28;19937;-52
2022/07/29 02:41:29;;;;;;;;;;;;;;;28.08;52.52;98505.19;2077975;28;20587;-52
2022/07/29 02:42:31;;;;;;;;;;;;;;;28.13;52.63;98507.94;2076493;28;19960;-52
2022/07/29 02:43:34;;;;;;;;;;;;;;;28.12;52.35;98511.75;2063039;28;19956;-53
2022/07/29 02:44:35;;;;;;;;;;;;;;;28.07;52.66;98512.56;2074779;28;19929;-52
2022/07/29 02:45:37;;;;;;;;;;;;;;;27.91;53.14;98515.50;2071268;28;19935;-53
2022/07/29 02:46:41;;;;;;;;;;;;;;;27.90;53.03;98514.69;2072756;28;20760;-55
2022/07/29 02:47:44;;;;;;;;;;;;;;;27.83;53.42;98517.69;2073866;28;19978;-52
2022/07/29 02:48:51;;;;;;;;;;;;;;;27.74;53.55;98521.94;2072822;28;19933;-51
2022/07/29 02:49:56;;;;;;;;;;;;;;;27.59;53.12;98516.44;2072264;28;19936;-52
2022/07/29 02:51:01;;;;;;;;;;;;;;;27.59;53.86;98513.72;2072607;28;19928;-51
2022/07/29 02:52:04;;;;;;;;;;;;;;;27.65;53.64;98509.13;2071727;28;19929;-52
2022/07/29 02:53:07;;;;;;;;;;;;;;;27.61;53.31;98512.38;2073633;28;19936;-53
2022/07/29 02:54:10;;;;;;;;;;;;;;;27.74;52.91;98512.97;2073414;28;19928;-53
2022/07/29 02:55:16;;;;;;;;;;;;;;;27.85;52.59;98512.75;2073102;28;20135;-53
2022/07/29 02:56:19;;;;;;;;;;;;;;;27.96;52.26;98508.16;2073895;28;20015;-52
2022/07/29 02:57:22;;;;;;;;;;;;;;;27.84;52.47;98511.13;2074128;28;19932;-50
2022/07/29 02:58:28;;;;;;;;;;;;;;;27.89;52.30;98507.59;2071180;28;19929;-55
2022/07/29 02:59:31;;;;;;;;;;;;;;;27.88;52.42;98505.94;2073181;28;19940;-56
2022/07/29 03:00:36;;;;;;;;;;;;;;;27.94;52.09;98510.31;2070420;28;20010;-55
2022/07/29 03:01:40;;;;;;;;;;;;;;;28.03;52.26;98513.38;2072681;28;20018;-51
2022/07/29 03:02:44;;;;;;;;;;;;;;;28.13;52.07;98512.56;2075020;28;19933;-54
2022/07/29 03:03:45;;;;;;;;;;;;;;;28.03;52.47;98513.38;2075372;28;20128;-52
2022/07/29 03:04:49;;;;;;;;;;;;;;;28.04;52.40;98515.00;2076452;28;19932;-54
2022/07/29 03:05:52;;;;;;;;;;;;;;;28.06;52.56;98512.84;2071833;28;20012;-55
2022/07/29 03:06:54;;;;;;;;;;;;;;;27.97;52.94;98508.97;2072316;28;19952;-55
2022/07/29 03:07:56;;;;;;;;;;;;;;;27.83;53.44;98506.78;2073627;28;19928;-55
2022/07/29 03:08:59;;;;;;;;;;;;;;;27.82;53.67;98510.56;2066635;28;20492;-55
2022/07/29 03:09:59;;;;;;;;;;;;;;;27.68;54.64;98509.41;2068809;28;19925;-54
2022/07/29 03:11:01;;;;;;;;;;;;;;;27.77;54.21;98515.97;2072399;28;20071;-55
2022/07/29 03:12:03;;;;;;;;;;;;;;;27.91;53.96;98512.78;2069438;28;19932;-55
2022/07/29 03:13:06;;;;;;;;;;;;;;;28.00;53.77;98511.16;2072911;28;19933;-55
2022/07/29 03:14:07;;;;;;;;;;;;;;;28.10;53.54;98513.91;2073324;28;20895;-54
2022/07/29 03:15:09;;;;;;;;;;;;;;;28.12;53.34;98514.47;2073269;28;19933;-56
2022/07/29 03:16:10;;;;;;;;;;;;;;;28.16;53.38;98520.22;2070753;28;19928;-51
2022/07/29 03:17:12;;;;;;;;;;;;;;;28.20;52.91;98518.59;2073527;28;19928;-54
2022/07/29 03:18:13;;;;;;;;;;;;;;;28.28;52.82;98521.59;2070975;28;19933;-55
2022/07/29 03:19:16;;;;;;;;;;;;;;;28.33;52.38;98522.69;2072279;28;19936;-53
2022/07/29 03:20:17;;;;;;;;;;;;;;;28.40;52.26;98523.25;2076596;28;19940;-56
2022/07/29 03:21:19;;;;;;;;;;;;;;;28.43;52.17;98530.94;2074274;28;20004;-54
2022/07/29 03:22:20;;;;;;;;;;;;;;;28.47;52.42;98523.81;2078326;28;19940;-52
2022/07/29 03:23:23;;;;;;;;;;;;;;;28.51;52.10;98524.94;2073407;28;20414;-55
2022/07/29 03:24:25;;;;;;;;;;;;;;;28.54;52.43;98534.50;2069748;28;20031;-53
2022/07/29 03:25:27;;;;;;;;;;;;;;;28.56;52.31;98527.69;2073023;28;19928;-54
2022/07/29 03:26:27;;;;;;;;;;;;;;;28.59;52.01;98537.22;2074156;28;19998;-51
2022/07/29 03:27:29;;;;;;;;;;;;;;;28.59;51.91;98527.13;2071769;28;20583;-55
2022/07/29 03:28:30;;;;;;;;;;;;;;;28.60;51.87;98536.13;2071681;28;19933;-54
2022/07/29 03:29:32;;;;;;;;;;;;;;;28.61;51.89;98519.50;2072741;28;19931;-55
2022/07/29 03:30:32;;;;;;;;;;;;;;;28.62;51.89;98533.94;2074210;28;20598;-56
2022/07/29 03:31:34;;;;;;;;;;;;;;;28.63;51.78;98530.13;2075233;28;20032;-55
2022/07/29 03:32:34;;;;;;;;;;;;;;;28.64;51.74;98527.13;2073536;28;19924;-56
2022/07/29 03:33:36;;;;;;;;;;;;;;;28.65;51.79;98528.75;2071747;28;20027;-56
2022/07/29 03:34:37;;;;;;;;;;;;;;;28.66;51.87;98529.56;2074246;28;19933;-55
2022/07/29 03:35:40;;;;;;;;;;;;;;;28.68;51.85;98530.13;2071211;28;20063;-54
2022/07/29 03:36:42;;;;;;;;;;;;;;;28.68;51.59;98530.13;2071598;28;19929;-54
2022/07/29 03:37:42;;;;;;;;;;;;;;;28.66;51.76;98526.84;2071435;28;19933;-56
2022/07/29 03:38:45;;;;;;;;;;;;;;;28.65;51.81;98534.22;2072754;28;19979;-53
2022/07/29 03:39:47;;;;;;;;;;;;;;;28.56;52.09;98538.59;2072776;28;19924;-56
2022/07/29 03:40:50;;;;;;;;;;;;;;;28.57;52.25;98531.22;2071350;28;19936;-51
2022/07/29 03:41:53;;;;;;;;;;;;;;;28.61;52.11;98535.88;2081486;28;19936;-54
2022/07/29 03:42:56;;;;;;;;;;;;;;;28.62;51.88;98532.03;2080803;28;19933;-53
2022/07/29 03:43:58;;;;;;;;;;;;;;;28.58;52.08;98536.38;2081067;28;19936;-52
2022/07/29 03:45:02;;;;;;;;;;;;;;;28.61;51.94;98533.16;2081323;28;19931;-54
2022/07/29 03:46:04;;;;;;;;;;;;;;;28.62;51.90;98540.22;2081981;28;19929;-53
2022/07/29 03:47:07;;;;;;;;;;;;;;;28.62;51.76;98537.50;2081216;28;19960;-52
2022/07/29 03:48:10;;;;;;;;;;;;;;;28.54;51.78;98535.31;2081754;28;19925;-54
2022/07/29 03:49:12;;;;;;;;;;;;;;;28.59;51.98;98543.50;2082283;28;20646;-56
2022/07/29 03:50:14;;;;;;;;;;;;;;;28.43;52.70;98536.38;2080388;28;19940;-53
2022/07/29 03:51:17;;;;;;;;;;;;;;;28.48;52.46;98536.41;2079364;28;19983;-52
2022/07/29 03:52:18;;;;;;;;;;;;;;;28.41;52.56;98535.78;2082956;28;19932;-51
2022/07/29 03:53:20;;;;;;;;;;;;;;;28.38;52.97;98536.34;2081691;28;19929;-55
2022/07/29 03:54:20;;;;;;;;;;;;;;;28.43;52.63;98530.94;2082319;28;19960;-55
2022/07/29 03:55:22;;;;;;;;;;;;;;;28.34;52.95;98538.81;2082092;28;19953;-55
2022/07/29 03:56:23;;;;;;;;;;;;;;;28.28;53.24;98532.53;2076923;28;19935;-56
2022/07/29 03:57:25;;;;;;;;;;;;;;;28.29;53.31;98531.41;2072086;28;20625;-56
2022/07/29 03:58:27;;;;;;;;;;;;;;;28.21;53.53;98531.94;2074940;28;21535;-55
2022/07/29 03:59:30;;;;;;;;;;;;;;;28.22;53.14;98532.75;2070680;28;19933;-54
2022/07/29 04:00:31;;;;;;;;;;;;;;;28.22;53.17;98539.06;2073544;28;19928;-53
2022/07/29 04:01:34;;;;;;;;;;;;;;;28.11;53.77;98537.38;2072372;28;19939;-55
2022/07/29 04:02:36;;;;;;;;;;;;;;;28.07;53.98;98537.09;2074390;28;20398;-53
2022/07/29 04:03:37;;;;;;;;;;;;;;;28.11;53.91;98536.56;2072737;28;19933;-55
2022/07/29 04:04:39;;;;;;;;;;;;;;;28.11;54.20;98536.56;2074671;28;19972;-59
2022/07/29 04:05:39;;;;;;;;;;;;;;;28.15;54.06;98529.47;2078800;28;19932;-53
2022/07/29 04:06:43;;;;;;;;;;;;;;;28.09;54.13;98533.28;2073350;28;20544;-54
2022/07/29 04:07:44;;;;;;;;;;;;;;;28.04;54.06;98537.63;2073191;28;19933;-54
2022/07/29 04:08:46;;;;;;;;;;;;;;;28.03;54.24;98538.72;2060023;28;19929;-56
2022/07/29 04:09:46;;;;;;;;;;;;;;;27.97;54.72;98534.34;2070777;28;19929;-53
2022/07/29 04:10:48;;;;;;;;;;;;;;;27.94;54.76;98534.03;2075571;28;20583;-50
2022/07/29 04:11:48;;;;;;;;;;;;;;;28.03;54.40;98538.72;2077212;28;19935;-55
2022/07/29 04:12:50;;;;;;;;;;;;;;;28.05;54.40;98535.72;2076408;28;21086;-52
2022/07/29 04:13:50;;;;;;;;;;;;;;;28.00;54.54;98532.97;2076254;28;19925;-55
2022/07/29 04:14:52;;;;;;;;;;;;;;;27.91;54.70;98531.84;2070051;28;20027;-52
2022/07/29 04:15:53;;;;;;;;;;;;;;;27.87;55.17;98539.75;2076367;28;19935;-54
2022/07/29 04:16:55;;;;;;;;;;;;;;;28.00;54.58;98535.69;2074045;28;19939;-52
2022/07/29 04:17:55;;;;;;;;;;;;;;;27.96;54.60;98538.16;2079116;28;20027;-53
2022/07/29 04:18:57;;;;;;;;;;;;;;;28.01;54.76;98537.34;2080710;28;19933;-49
2022/07/29 04:19:57;;;;;;;;;;;;;;;28.00;54.63;98541.16;2082895;28;19925;-54
2022/07/29 04:21:00;;;;;;;;;;;;;;;27.97;54.80;98539.81;2079417;28;20020;-54
2022/07/29 04:22:02;;;;;;;;;;;;;;;27.95;54.83;98539.25;2076684;28;19990;-52
2022/07/29 04:23:04;;;;;;;;;;;;;;;27.91;55.11;98550.94;2080211;28;19929;-53
2022/07/29 04:24:05;;;;;;;;;;;;;;;27.85;55.21;98545.47;2077175;28;20509;-56
2022/07/29 04:25:07;;;;;;;;;;;;;;;27.92;54.82;98549.88;2076249;28;19940;-51
2022/07/29 04:26:09;;;;;;;;;;;;;;;27.93;54.84;98552.31;2074976;28;19929;-50
2022/07/29 04:27:11;;;;;;;;;;;;;;;28.00;54.93;98554.78;2077426;28;19925;-53
2022/07/29 04:28:11;;;;;;;;;;;;;;;27.97;54.95;98558.03;2074601;28;19928;-53
2022/07/29 04:29:14;;;;;;;;;;;;;;;28.02;54.66;98556.16;2078814;28;19935;-52
2022/07/29 04:30:14;;;;;;;;;;;;;;;28.17;54.26;98549.94;2078772;28;19929;-55
2022/07/29 04:31:16;;;;;;;;;;;;;;;28.11;54.25;98550.19;2077657;28;20012;-53
2022/07/29 04:32:16;;;;;;;;;;;;;;;28.15;54.54;98554.84;2073895;28;19925;-51
2022/07/29 04:33:18;;;;;;;;;;;;;;;28.06;54.68;98551.00;2076702;28;20676;-56
2022/07/29 04:34:18;;;;;;;;;;;;;;;28.16;54.58;98547.47;2078292;28;20318;-51
2022/07/29 04:35:20;;;;;;;;;;;;;;;28.12;54.27;98549.94;2077829;28;19925;-55
2022/07/29 04:36:21;;;;;;;;;;;;;;;28.23;54.38;98551.59;2079032;28;19925;-49
2022/07/29 04:37:24;;;;;;;;;;;;;;;28.29;53.99;98558.69;2072093;28;19935;-52
2022/07/29 04:38:24;;;;;;;;;;;;;;;28.24;54.02;98552.41;2077186;28;19932;-53
2022/07/29 04:39:26;;;;;;;;;;;;;;;28.13;54.24;98553.47;2071416;28;20740;-56
2022/07/29 04:40:27;;;;;;;;;;;;;;;28.16;54.38;98556.47;2074525;28;19933;-55
2022/07/29 04:41:29;;;;;;;;;;;;;;;28.25;54.36;98552.16;2076988;28;19929;-56
2022/07/29 04:42:29;;;;;;;;;;;;;;;28.26;53.95;98558.41;2079027;28;19924;-54
2022/07/29 04:43:31;;;;;;;;;;;;;;;28.20;54.68;98554.84;2079169;28;20734;-55
2022/07/29 04:44:31;;;;;;;;;;;;;;;28.24;54.31;98561.41;2082335;28;19924;-55
2022/07/29 04:45:33;;;;;;;;;;;;;;;28.36;54.07;98552.16;2076588;28;20011;-55
2022/07/29 04:46:33;;;;;;;;;;;;;;;28.30;54.41;98548.59;2072677;28;19932;-53
2022/07/29 04:47:35;;;;;;;;;;;;;;;28.41;53.89;98550.25;2078272;28;19998;-55
2022/07/29 04:48:37;;;;;;;;;;;;;;;28.37;54.07;98553.81;2073652;28;20315;-54
2022/07/29 04:49:37;;;;;;;;;;;;;;;28.30;54.36;98559.50;2068897;28;19997;-56
2022/07/29 04:50:39;;;;;;;;;;;;;;;28.15;55.00;98554.84;2068941;28;20054;-55
2022/07/29 04:51:40;;;;;;;;;;;;;;;28.21;54.77;98544.75;2078489;28;19933;-53
2022/07/29 04:52:43;;;;;;;;;;;;;;;28.29;54.36;98558.69;2070047;28;20023;-52
2022/07/29 04:53:44;;;;;;;;;;;;;;;28.42;54.32;98559.28;2067337;28;20978;-55
2022/07/29 04:54:45;;;;;;;;;;;;;;;28.40;54.55;98554.06;2069134;28;20023;-54
2022/07/29 04:55:46;;;;;;;;;;;;;;;28.48;54.21;98559.03;2069495;28;19932;-53
2022/07/29 04:56:47;;;;;;;;;;;;;;;28.54;53.83;98557.13;2071909;28;19955;-55
2022/07/29 04:57:48;;;;;;;;;;;;;;;28.46;54.36;98560.38;2075435;28;21027;-54
2022/07/29 04:58:50;;;;;;;;;;;;;;;28.54;54.28;98559.88;2072921;28;19929;-55
2022/07/29 04:59:50;;;;;;;;;;;;;;;28.60;53.97;98558.78;2067885;28;19987;-55
2022/07/29 05:00:52;;;;;;;;;;;;;;;28.64;53.84;98565.34;2072909;28;20399;-55
2022/07/29 05:01:52;;;;;;;;;;;;;;;28.61;53.93;98554.97;2069149;28;19933;-56
2022/07/29 05:02:54;;;;;;;;;;;;;;;28.60;54.25;98560.69;2070140;28;19968;-55
2022/07/29 05:03:54;;;;;;;;;;;;;;;28.64;54.07;98562.63;2067847;28;19933;-52
2022/07/29 05:04:56;;;;;;;;;;;;;;;28.67;53.49;98556.59;2072920;28;19929;-54
2022/07/29 05:05:56;;;;;;;;;;;;;;;28.77;53.02;98560.44;2072206;28;19944;-53
2022/07/29 05:06:58;;;;;;;;;;;;;;;28.80;52.77;98559.88;2073733;28;20043;-54
2022/07/29 05:08:00;;;;;;;;;;;;;;;28.84;52.91;98550.06;2076853;28;19929;-52
2022/07/29 05:09:02;;;;;;;;;;;;;;;28.87;52.90;98555.78;2077360;28;19925;-53
2022/07/29 05:10:03;;;;;;;;;;;;;;;28.87;53.30;98561.25;2072935;28;19933;-52
2022/07/29 05:11:04;;;;;;;;;;;;;;;28.87;53.63;98553.06;2070337;28;20774;-55
2022/07/29 05:12:05;;;;;;;;;;;;;;;28.86;53.63;98550.59;2069641;28;19959;-55
2022/07/29 05:13:07;;;;;;;;;;;;;;;28.84;53.95;98550.88;2076610;28;20390;-56
2022/07/29 05:14:08;;;;;;;;;;;;;;;28.86;53.69;98558.78;2072227;28;20908;-54
2022/07/29 05:15:10;;;;;;;;;;;;;;;28.86;53.86;98548.69;2071694;28;19928;-54
2022/07/29 05:16:11;;;;;;;;;;;;;;;28.85;54.15;98559.88;2075304;28;19925;-50
2022/07/29 05:17:12;;;;;;;;;;;;;;;28.86;54.14;98556.91;2075852;28;19935;-56
2022/07/29 05:18:13;;;;;;;;;;;;;;;28.86;54.36;98553.31;2071343;28;19925;-54
2022/07/29 05:19:15;;;;;;;;;;;;;;;28.87;54.29;98554.97;2069331;28;20123;-54
2022/07/29 05:20:18;;;;;;;;;;;;;;;28.90;54.04;98562.63;2071377;28;19940;-56
2022/07/29 05:21:18;;;;;;;;;;;;;;;28.89;54.35;98560.97;2075483;28;19964;-56
2022/07/29 05:22:20;;;;;;;;;;;;;;;28.91;54.24;98558.78;2069771;28;19937;-54
2022/07/29 05:23:22;;;;;;;;;;;;;;;28.89;54.32;98552.78;2074650;28;20753;-54
2022/07/29 05:24:24;;;;;;;;;;;;;;;28.90;54.33;98554.44;2072132;28;19932;-56
2022/07/29 05:25:24;;;;;;;;;;;;;;;28.88;54.33;98560.16;2074090;28;19935;-56
2022/07/29 05:26:26;;;;;;;;;;;;;;;28.87;54.70;98553.06;2072033;28;19940;-56
2022/07/29 05:27:27;;;;;;;;;;;;;;;28.88;54.63;98562.06;2051048;28;21108;-56